sensor_id;sensor_type;location;lat;lon;timestamp;temperature;humidity
59128;DHT22;44912;52.754;5.994;2023-11-22T00:00:09;5.30;99.90
59128;DHT22;44912;52.754;5.994;2023-11-22T00:02:35;5.40;99.90
59128;DHT22;44912;52.754;5.994;2023-11-22T00:05:01;5.30;99.90
59128;DHT22;44912;52.754;5.994;2023-11-22T00:07:28;5.40;99.90
59128;DHT22;44912;52.754;5.994;2023-11-22T00:09:55;5.40;99.90
59128;DHT22;44912;52.754;5.994;2023-11-22T00:12:20;5.40;99.90
59128;DHT22;44912;52.754;5.994;2023-11-22T00:14:46;5.40;99.90
59128;DHT22;44912;52.754;5.994;2023-11-22T00:17:12;5.40;99.90
59128;DHT22;44912;52.754;5.994;2023-11-22T00:19:38;5.30;99.90
59128;DHT22;44912;52.754;5.994;2023-11-22T00:22:04;5.30;99.90
59128;DHT22;44912;52.754;5.994;2023-11-22T00:24:37;5.30;99.90
59128;DHT22;44912;52.754;5.994;2023-11-22T00:27:02;5.40;99.90
59128;DHT22;44912;52.754;5.994;2023-11-22T00:29:28;5.40;99.90
59128;DHT22;44912;52.754;5.994;2023-11-22T00:31:54;5.50;99.90
59128;DHT22;44912;52.754;5.994;2023-11-22T00:34:19;5.40;99.90
59128;DHT22;44912;52.754;5.994;2023-11-22T00:36:45;5.40;99.90
59128;DHT22;44912;52.754;5.994;2023-11-22T00:39:10;5.40;99.90
59128;DHT22;44912;52.754;5.994;2023-11-22T00:41:39;5.40;99.90
59128;DHT22;44912;52.754;5.994;2023-11-22T00:44:05;5.40;99.90
59128;DHT22;44912;52.754;5.994;2023-11-22T00:46:31;5.40;99.90
59128;DHT22;44912;52.754;5.994;2023-11-22T00:48:57;5.30;99.90
59128;DHT22;44912;52.754;5.994;2023-11-22T00:51:23;5.30;99.90
59128;DHT22;44912;52.754;5.994;2023-11-22T00:53:49;5.30;99.90
59128;DHT22;44912;52.754;5.994;2023-11-22T00:56:15;5.30;99.90
59128;DHT22;44912;52.754;5.994;2023-11-22T00:58:40;5.20;99.90
59128;DHT22;44912;52.754;5.994;2023-11-22T01:01:06;5.20;99.90
59128;DHT22;44912;52.754;5.994;2023-11-22T01:03:32;5.20;99.90
59128;DHT22;44912;52.754;5.994;2023-11-22T01:05:57;5.20;99.90
59128;DHT22;44912;52.754;5.994;2023-11-22T01:08:23;5.20;99.90
59128;DHT22;44912;52.754;5.994;2023-11-22T01:10:48;5.20;99.90
59128;DHT22;44912;52.754;5.994;2023-11-22T01:13:14;5.10;99.90
59128;DHT22;44912;52.754;5.994;2023-11-22T01:15:41;5.10;99.90
59128;DHT22;44912;52.754;5.994;2023-11-22T01:18:07;5.10;99.90
59128;DHT22;44912;52.754;5.994;2023-11-22T01:20:32;4.90;99.90
59128;DHT22;44912;52.754;5.994;2023-11-22T01:22:58;4.90;99.90
59128;DHT22;44912;52.754;5.994;2023-11-22T01:25:23;5.00;99.90
59128;DHT22;44912;52.754;5.994;2023-11-22T01:27:49;5.00;99.90
59128;DHT22;44912;52.754;5.994;2023-11-22T01:30:14;4.90;99.90
59128;DHT22;44912;52.754;5.994;2023-11-22T01:32:40;5.10;99.90
59128;DHT22;44912;52.754;5.994;2023-11-22T01:35:06;5.00;99.90
59128;DHT22;44912;52.754;5.994;2023-11-22T01:37:32;5.00;99.90
59128;DHT22;44912;52.754;5.994;2023-11-22T01:39:57;4.90;99.90
59128;DHT22;44912;52.754;5.994;2023-11-22T01:42:23;4.90;99.90
59128;DHT22;44912;52.754;5.994;2023-11-22T01:44:51;4.70;99.90
59128;DHT22;44912;52.754;5.994;2023-11-22T01:47:17;4.70;99.90
59128;DHT22;44912;52.754;5.994;2023-11-22T01:49:43;4.70;99.90
59128;DHT22;44912;52.754;5.994;2023-11-22T01:52:08;4.60;99.90
59128;DHT22;44912;52.754;5.994;2023-11-22T01:54:34;4.50;99.90
59128;DHT22;44912;52.754;5.994;2023-11-22T01:57:02;4.50;99.90
59128;DHT22;44912;52.754;5.994;2023-11-22T01:59:29;4.50;99.90
59128;DHT22;44912;52.754;5.994;2023-11-22T02:01:55;4.40;99.90
59128;DHT22;44912;52.754;5.994;2023-11-22T02:04:20;4.40;99.90
59128;DHT22;44912;52.754;5.994;2023-11-22T02:06:46;4.40;99.90
59128;DHT22;44912;52.754;5.994;2023-11-22T02:09:12;4.40;99.90
59128;DHT22;44912;52.754;5.994;2023-11-22T02:11:41;4.40;99.90
59128;DHT22;44912;52.754;5.994;2023-11-22T02:14:08;4.30;99.90
59128;DHT22;44912;52.754;5.994;2023-11-22T02:16:35;4.30;99.90
59128;DHT22;44912;52.754;5.994;2023-11-22T02:19:00;4.30;99.90
59128;DHT22;44912;52.754;5.994;2023-11-22T02:21:26;4.30;99.90
59128;DHT22;44912;52.754;5.994;2023-11-22T02:23:51;4.40;99.90
59128;DHT22;44912;52.754;5.994;2023-11-22T02:26:17;4.30;99.90
59128;DHT22;44912;52.754;5.994;2023-11-22T02:28:44;4.30;99.90
59128;DHT22;44912;52.754;5.994;2023-11-22T02:31:09;4.30;99.90
59128;DHT22;44912;52.754;5.994;2023-11-22T02:33:35;4.20;99.90
59128;DHT22;44912;52.754;5.994;2023-11-22T02:36:01;4.20;99.90
59128;DHT22;44912;52.754;5.994;2023-11-22T02:38:28;4.10;99.90
59128;DHT22;44912;52.754;5.994;2023-11-22T02:40:54;4.10;99.90
59128;DHT22;44912;52.754;5.994;2023-11-22T02:43:20;4.10;99.90
59128;DHT22;44912;52.754;5.994;2023-11-22T02:45:46;4.00;99.90
59128;DHT22;44912;52.754;5.994;2023-11-22T02:48:12;4.00;99.90
59128;DHT22;44912;52.754;5.994;2023-11-22T02:50:38;4.00;99.90
59128;DHT22;44912;52.754;5.994;2023-11-22T02:53:04;4.00;99.90
59128;DHT22;44912;52.754;5.994;2023-11-22T02:55:30;4.10;99.90
59128;DHT22;44912;52.754;5.994;2023-11-22T02:57:56;4.10;99.90
59128;DHT22;44912;52.754;5.994;2023-11-22T03:00:22;4.10;99.90
59128;DHT22;44912;52.754;5.994;2023-11-22T03:02:48;4.00;99.90
59128;DHT22;44912;52.754;5.994;2023-11-22T03:05:19;3.90;99.90
59128;DHT22;44912;52.754;5.994;2023-11-22T03:07:45;3.90;99.90
59128;DHT22;44912;52.754;5.994;2023-11-22T03:10:10;3.90;99.90
59128;DHT22;44912;52.754;5.994;2023-11-22T03:12:36;3.80;99.90
59128;DHT22;44912;52.754;5.994;2023-11-22T03:15:03;3.90;99.90
59128;DHT22;44912;52.754;5.994;2023-11-22T03:17:29;3.80;99.90
59128;DHT22;44912;52.754;5.994;2023-11-22T03:19:58;3.80;99.90
59128;DHT22;44912;52.754;5.994;2023-11-22T03:22:24;3.70;99.90
59128;DHT22;44912;52.754;5.994;2023-11-22T03:24:50;3.60;99.90
59128;DHT22;44912;52.754;5.994;2023-11-22T03:27:16;3.60;99.90
59128;DHT22;44912;52.754;5.994;2023-11-22T03:29:42;3.50;99.90
59128;DHT22;44912;52.754;5.994;2023-11-22T03:32:07;3.40;99.90
59128;DHT22;44912;52.754;5.994;2023-11-22T03:34:33;3.40;99.90
59128;DHT22;44912;52.754;5.994;2023-11-22T03:36:59;3.30;99.90
59128;DHT22;44912;52.754;5.994;2023-11-22T03:39:24;3.20;99.90
59128;DHT22;44912;52.754;5.994;2023-11-22T03:41:50;3.30;99.90
59128;DHT22;44912;52.754;5.994;2023-11-22T03:44:16;3.40;99.90
59128;DHT22;44912;52.754;5.994;2023-11-22T03:46:42;3.30;99.90
59128;DHT22;44912;52.754;5.994;2023-11-22T03:49:07;3.40;99.90
59128;DHT22;44912;52.754;5.994;2023-11-22T03:51:34;3.40;99.90
59128;DHT22;44912;52.754;5.994;2023-11-22T03:54:00;3.40;99.90
59128;DHT22;44912;52.754;5.994;2023-11-22T03:56:26;3.50;99.90
59128;DHT22;44912;52.754;5.994;2023-11-22T03:58:51;3.50;99.90
59128;DHT22;44912;52.754;5.994;2023-11-22T04:01:17;3.50;99.90
59128;DHT22;44912;52.754;5.994;2023-11-22T04:03:44;3.50;99.90
59128;DHT22;44912;52.754;5.994;2023-11-22T04:06:09;3.50;99.90
59128;DHT22;44912;52.754;5.994;2023-11-22T04:08:35;3.50;99.90
59128;DHT22;44912;52.754;5.994;2023-11-22T04:11:01;3.50;99.90
59128;DHT22;44912;52.754;5.994;2023-11-22T04:13:27;3.50;99.90
59128;DHT22;44912;52.754;5.994;2023-11-22T04:15:53;3.40;99.90
59128;DHT22;44912;52.754;5.994;2023-11-22T04:18:18;3.40;99.90
59128;DHT22;44912;52.754;5.994;2023-11-22T04:20:44;3.40;99.90
59128;DHT22;44912;52.754;5.994;2023-11-22T04:23:10;3.30;99.90
59128;DHT22;44912;52.754;5.994;2023-11-22T04:25:40;3.30;99.90
59128;DHT22;44912;52.754;5.994;2023-11-22T04:28:07;3.20;99.90
59128;DHT22;44912;52.754;5.994;2023-11-22T04:30:34;3.30;99.90
59128;DHT22;44912;52.754;5.994;2023-11-22T04:33:00;3.20;99.90
59128;DHT22;44912;52.754;5.994;2023-11-22T04:35:25;3.10;99.90
59128;DHT22;44912;52.754;5.994;2023-11-22T04:37:51;3.10;99.90
59128;DHT22;44912;52.754;5.994;2023-11-22T04:40:16;3.00;99.90
59128;DHT22;44912;52.754;5.994;2023-11-22T04:42:43;2.90;99.90
59128;DHT22;44912;52.754;5.994;2023-11-22T04:45:08;2.90;99.90
59128;DHT22;44912;52.754;5.994;2023-11-22T04:47:35;2.80;99.90
59128;DHT22;44912;52.754;5.994;2023-11-22T04:50:00;2.80;99.90
59128;DHT22;44912;52.754;5.994;2023-11-22T04:52:26;2.70;99.90
59128;DHT22;44912;52.754;5.994;2023-11-22T04:54:51;2.70;99.90
59128;DHT22;44912;52.754;5.994;2023-11-22T04:57:17;2.70;99.90
59128;DHT22;44912;52.754;5.994;2023-11-22T04:59:43;2.80;99.90
59128;DHT22;44912;52.754;5.994;2023-11-22T05:02:08;2.70;99.90
59128;DHT22;44912;52.754;5.994;2023-11-22T05:04:34;2.60;99.90
59128;DHT22;44912;52.754;5.994;2023-11-22T05:07:00;2.60;99.90
59128;DHT22;44912;52.754;5.994;2023-11-22T05:09:25;2.60;99.90
59128;DHT22;44912;52.754;5.994;2023-11-22T05:11:51;2.70;99.90
59128;DHT22;44912;52.754;5.994;2023-11-22T05:14:17;2.70;99.90
59128;DHT22;44912;52.754;5.994;2023-11-22T05:16:43;2.80;99.90
59128;DHT22;44912;52.754;5.994;2023-11-22T05:19:09;2.90;99.90
59128;DHT22;44912;52.754;5.994;2023-11-22T05:21:34;3.00;99.90
59128;DHT22;44912;52.754;5.994;2023-11-22T05:24:00;3.00;99.90
59128;DHT22;44912;52.754;5.994;2023-11-22T05:26:25;3.10;99.90
59128;DHT22;44912;52.754;5.994;2023-11-22T05:28:52;3.10;99.90
59128;DHT22;44912;52.754;5.994;2023-11-22T05:31:20;3.20;99.90
59128;DHT22;44912;52.754;5.994;2023-11-22T05:33:46;3.20;99.90
59128;DHT22;44912;52.754;5.994;2023-11-22T05:36:11;3.20;99.90
59128;DHT22;44912;52.754;5.994;2023-11-22T05:38:37;3.20;99.90
59128;DHT22;44912;52.754;5.994;2023-11-22T05:41:03;3.20;99.90
59128;DHT22;44912;52.754;5.994;2023-11-22T05:43:29;3.30;99.90
59128;DHT22;44912;52.754;5.994;2023-11-22T05:45:55;3.30;99.90
59128;DHT22;44912;52.754;5.994;2023-11-22T05:48:21;3.40;99.90
59128;DHT22;44912;52.754;5.994;2023-11-22T05:50:47;3.40;99.90
59128;DHT22;44912;52.754;5.994;2023-11-22T05:53:13;3.40;99.90
59128;DHT22;44912;52.754;5.994;2023-11-22T05:55:48;3.40;99.90
59128;DHT22;44912;52.754;5.994;2023-11-22T05:58:14;3.40;99.90
59128;DHT22;44912;52.754;5.994;2023-11-22T06:00:42;3.40;99.90
59128;DHT22;44912;52.754;5.994;2023-11-22T06:03:09;3.50;99.90
59128;DHT22;44912;52.754;5.994;2023-11-22T06:05:34;3.40;99.90
59128;DHT22;44912;52.754;5.994;2023-11-22T06:08:00;3.50;99.90
59128;DHT22;44912;52.754;5.994;2023-11-22T06:10:26;3.50;99.90
59128;DHT22;44912;52.754;5.994;2023-11-22T06:12:52;3.50;99.90
59128;DHT22;44912;52.754;5.994;2023-11-22T06:15:17;3.50;99.90
59128;DHT22;44912;52.754;5.994;2023-11-22T06:17:46;3.50;99.90
59128;DHT22;44912;52.754;5.994;2023-11-22T06:20:12;3.60;99.90
59128;DHT22;44912;52.754;5.994;2023-11-22T06:22:38;3.60;99.90
59128;DHT22;44912;52.754;5.994;2023-11-22T06:27:33;3.50;99.90
59128;DHT22;44912;52.754;5.994;2023-11-22T06:29:59;3.60;99.90
59128;DHT22;44912;52.754;5.994;2023-11-22T06:32:24;3.40;99.90
59128;DHT22;44912;52.754;5.994;2023-11-22T06:34:50;3.40;99.90
59128;DHT22;44912;52.754;5.994;2023-11-22T06:37:16;3.40;99.90
59128;DHT22;44912;52.754;5.994;2023-11-22T06:39:42;3.50;99.90
59128;DHT22;44912;52.754;5.994;2023-11-22T06:42:07;3.50;99.90
59128;DHT22;44912;52.754;5.994;2023-11-22T06:44:34;3.50;99.90
59128;DHT22;44912;52.754;5.994;2023-11-22T06:47:00;3.50;99.90
59128;DHT22;44912;52.754;5.994;2023-11-22T06:49:25;3.50;99.90
59128;DHT22;44912;52.754;5.994;2023-11-22T06:51:51;3.50;99.90
59128;DHT22;44912;52.754;5.994;2023-11-22T06:54:19;3.50;99.90
59128;DHT22;44912;52.754;5.994;2023-11-22T06:56:45;3.50;99.90
59128;DHT22;44912;52.754;5.994;2023-11-22T06:59:11;3.50;99.90
59128;DHT22;44912;52.754;5.994;2023-11-22T07:01:36;3.50;99.90
59128;DHT22;44912;52.754;5.994;2023-11-22T07:04:02;3.40;99.90
59128;DHT22;44912;52.754;5.994;2023-11-22T07:06:30;3.50;99.90
59128;DHT22;44912;52.754;5.994;2023-11-22T07:08:56;3.60;99.90
59128;DHT22;44912;52.754;5.994;2023-11-22T07:11:24;3.50;99.90
59128;DHT22;44912;52.754;5.994;2023-11-22T07:13:50;3.50;99.90
59128;DHT22;44912;52.754;5.994;2023-11-22T07:16:22;3.50;99.90
59128;DHT22;44912;52.754;5.994;2023-11-22T07:18:52;3.50;99.90
59128;DHT22;44912;52.754;5.994;2023-11-22T07:21:18;3.60;99.90
59128;DHT22;44912;52.754;5.994;2023-11-22T07:23:44;3.60;99.90
59128;DHT22;44912;52.754;5.994;2023-11-22T07:26:13;3.60;99.90
59128;DHT22;44912;52.754;5.994;2023-11-22T07:28:55;3.70;99.90
59128;DHT22;44912;52.754;5.994;2023-11-22T07:31:21;3.60;99.90
59128;DHT22;44912;52.754;5.994;2023-11-22T07:33:48;3.70;99.90
59128;DHT22;44912;52.754;5.994;2023-11-22T07:36:13;3.60;99.90
59128;DHT22;44912;52.754;5.994;2023-11-22T07:38:41;3.60;99.90
59128;DHT22;44912;52.754;5.994;2023-11-22T07:41:08;3.60;99.90
59128;DHT22;44912;52.754;5.994;2023-11-22T07:43:33;3.70;99.90
59128;DHT22;44912;52.754;5.994;2023-11-22T07:45:59;3.70;99.90
59128;DHT22;44912;52.754;5.994;2023-11-22T07:48:26;3.80;99.90
59128;DHT22;44912;52.754;5.994;2023-11-22T07:50:52;3.80;99.90
59128;DHT22;44912;52.754;5.994;2023-11-22T07:53:18;3.90;99.90
59128;DHT22;44912;52.754;5.994;2023-11-22T07:55:44;3.90;99.90
59128;DHT22;44912;52.754;5.994;2023-11-22T07:58:10;3.90;99.90
59128;DHT22;44912;52.754;5.994;2023-11-22T08:00:36;3.90;99.90
59128;DHT22;44912;52.754;5.994;2023-11-22T08:03:08;4.10;99.90
59128;DHT22;44912;52.754;5.994;2023-11-22T08:05:34;4.00;99.90
59128;DHT22;44912;52.754;5.994;2023-11-22T08:08:05;4.00;99.90
59128;DHT22;44912;52.754;5.994;2023-11-22T08:10:36;4.00;99.90
59128;DHT22;44912;52.754;5.994;2023-11-22T08:13:02;4.10;99.90
59128;DHT22;44912;52.754;5.994;2023-11-22T08:15:28;4.10;99.90
59128;DHT22;44912;52.754;5.994;2023-11-22T08:17:54;4.10;99.90
59128;DHT22;44912;52.754;5.994;2023-11-22T08:20:20;4.20;99.90
59128;DHT22;44912;52.754;5.994;2023-11-22T08:22:47;4.10;99.90
59128;DHT22;44912;52.754;5.994;2023-11-22T08:25:15;4.10;99.90
59128;DHT22;44912;52.754;5.994;2023-11-22T08:27:41;4.30;99.90
59128;DHT22;44912;52.754;5.994;2023-11-22T08:30:08;4.20;99.90
59128;DHT22;44912;52.754;5.994;2023-11-22T08:32:42;4.30;99.90
59128;DHT22;44912;52.754;5.994;2023-11-22T08:35:08;4.30;99.90
59128;DHT22;44912;52.754;5.994;2023-11-22T08:37:34;4.30;99.90
59128;DHT22;44912;52.754;5.994;2023-11-22T08:40:04;4.40;99.90
59128;DHT22;44912;52.754;5.994;2023-11-22T08:42:30;4.40;99.90
59128;DHT22;44912;52.754;5.994;2023-11-22T08:44:55;4.50;99.90
59128;DHT22;44912;52.754;5.994;2023-11-22T08:47:21;4.50;99.90
59128;DHT22;44912;52.754;5.994;2023-11-22T08:49:46;4.40;99.90
59128;DHT22;44912;52.754;5.994;2023-11-22T08:52:13;4.50;99.90
59128;DHT22;44912;52.754;5.994;2023-11-22T08:54:39;4.50;99.90
59128;DHT22;44912;52.754;5.994;2023-11-22T08:57:05;4.50;99.90
59128;DHT22;44912;52.754;5.994;2023-11-22T08:59:31;4.60;99.90
59128;DHT22;44912;52.754;5.994;2023-11-22T09:02:06;4.60;99.90
59128;DHT22;44912;52.754;5.994;2023-11-22T09:04:33;4.60;99.90
59128;DHT22;44912;52.754;5.994;2023-11-22T09:06:58;4.60;99.90
59128;DHT22;44912;52.754;5.994;2023-11-22T09:09:24;4.70;99.90
59128;DHT22;44912;52.754;5.994;2023-11-22T09:11:57;4.60;99.90
59128;DHT22;44912;52.754;5.994;2023-11-22T09:14:22;4.70;99.90
59128;DHT22;44912;52.754;5.994;2023-11-22T09:16:50;4.70;99.90
59128;DHT22;44912;52.754;5.994;2023-11-22T09:19:23;4.70;99.90
59128;DHT22;44912;52.754;5.994;2023-11-22T09:21:49;4.80;99.90
59128;DHT22;44912;52.754;5.994;2023-11-22T09:24:15;4.80;99.90
59128;DHT22;44912;52.754;5.994;2023-11-22T09:26:40;4.80;99.90
59128;DHT22;44912;52.754;5.994;2023-11-22T09:29:08;4.80;99.90
59128;DHT22;44912;52.754;5.994;2023-11-22T09:31:34;4.80;99.90
59128;DHT22;44912;52.754;5.994;2023-11-22T09:34:00;4.90;99.90
59128;DHT22;44912;52.754;5.994;2023-11-22T09:36:26;4.90;99.90
59128;DHT22;44912;52.754;5.994;2023-11-22T09:38:53;4.90;99.90
59128;DHT22;44912;52.754;5.994;2023-11-22T09:41:18;4.90;99.90
59128;DHT22;44912;52.754;5.994;2023-11-22T09:43:45;4.90;99.90
59128;DHT22;44912;52.754;5.994;2023-11-22T09:46:14;4.90;99.90
59128;DHT22;44912;52.754;5.994;2023-11-22T09:48:42;5.00;99.90
59128;DHT22;44912;52.754;5.994;2023-11-22T09:53:41;5.10;99.90
59128;DHT22;44912;52.754;5.994;2023-11-22T09:56:10;5.20;99.90
59128;DHT22;44912;52.754;5.994;2023-11-22T09:58:40;5.20;99.90
59128;DHT22;44912;52.754;5.994;2023-11-22T10:01:11;5.20;99.90
59128;DHT22;44912;52.754;5.994;2023-11-22T10:03:37;5.30;99.90
59128;DHT22;44912;52.754;5.994;2023-11-22T10:06:03;5.30;99.90
59128;DHT22;44912;52.754;5.994;2023-11-22T10:08:29;5.30;99.90
59128;DHT22;44912;52.754;5.994;2023-11-22T10:10:55;5.30;99.90
59128;DHT22;44912;52.754;5.994;2023-11-22T10:13:22;5.30;99.90
59128;DHT22;44912;52.754;5.994;2023-11-22T10:15:52;5.50;99.90
59128;DHT22;44912;52.754;5.994;2023-11-22T10:18:18;5.40;99.90
59128;DHT22;44912;52.754;5.994;2023-11-22T10:20:47;5.50;99.90
59128;DHT22;44912;52.754;5.994;2023-11-22T10:23:14;5.60;99.90
59128;DHT22;44912;52.754;5.994;2023-11-22T10:25:48;5.60;99.90
59128;DHT22;44912;52.754;5.994;2023-11-22T10:28:19;5.50;99.90
59128;DHT22;44912;52.754;5.994;2023-11-22T10:30:49;5.60;99.90
59128;DHT22;44912;52.754;5.994;2023-11-22T10:33:21;5.60;99.90
59128;DHT22;44912;52.754;5.994;2023-11-22T10:35:49;5.70;99.90
59128;DHT22;44912;52.754;5.994;2023-11-22T10:38:17;5.70;99.90
59128;DHT22;44912;52.754;5.994;2023-11-22T10:40:43;5.80;99.90
59128;DHT22;44912;52.754;5.994;2023-11-22T10:43:16;5.80;99.90
59128;DHT22;44912;52.754;5.994;2023-11-22T10:45:44;5.80;99.90
59128;DHT22;44912;52.754;5.994;2023-11-22T10:48:16;5.90;99.90
59128;DHT22;44912;52.754;5.994;2023-11-22T10:50:43;5.90;99.90
59128;DHT22;44912;52.754;5.994;2023-11-22T10:53:12;6.00;99.90
59128;DHT22;44912;52.754;5.994;2023-11-22T10:55:43;6.10;99.90
59128;DHT22;44912;52.754;5.994;2023-11-22T10:58:11;6.10;99.90
59128;DHT22;44912;52.754;5.994;2023-11-22T11:00:40;6.10;99.90
59128;DHT22;44912;52.754;5.994;2023-11-22T11:03:20;6.20;99.90
59128;DHT22;44912;52.754;5.994;2023-11-22T11:05:54;6.10;99.90
59128;DHT22;44912;52.754;5.994;2023-11-22T11:08:25;6.20;99.90
59128;DHT22;44912;52.754;5.994;2023-11-22T11:10:53;6.10;99.90
59128;DHT22;44912;52.754;5.994;2023-11-22T11:13:21;6.10;99.90
59128;DHT22;44912;52.754;5.994;2023-11-22T11:15:47;6.10;99.90
59128;DHT22;44912;52.754;5.994;2023-11-22T11:18:14;6.20;99.90
59128;DHT22;44912;52.754;5.994;2023-11-22T11:20:52;6.20;99.90
59128;DHT22;44912;52.754;5.994;2023-11-22T11:23:23;6.30;99.90
59128;DHT22;44912;52.754;5.994;2023-11-22T11:25:52;6.30;99.90
59128;DHT22;44912;52.754;5.994;2023-11-22T11:28:19;6.30;99.90
59128;DHT22;44912;52.754;5.994;2023-11-22T11:30:49;6.40;99.90
59128;DHT22;44912;52.754;5.994;2023-11-22T11:33:21;6.50;99.90
59128;DHT22;44912;52.754;5.994;2023-11-22T11:35:51;6.50;99.90
59128;DHT22;44912;52.754;5.994;2023-11-22T11:38:21;6.60;99.90
59128;DHT22;44912;52.754;5.994;2023-11-22T11:40:48;6.60;99.90
59128;DHT22;44912;52.754;5.994;2023-11-22T11:43:14;6.70;99.90
59128;DHT22;44912;52.754;5.994;2023-11-22T11:45:41;6.70;99.90
59128;DHT22;44912;52.754;5.994;2023-11-22T11:48:15;6.70;99.90
59128;DHT22;44912;52.754;5.994;2023-11-22T11:50:41;6.80;99.90
59128;DHT22;44912;52.754;5.994;2023-11-22T11:53:08;6.80;99.90
59128;DHT22;44912;52.754;5.994;2023-11-22T11:55:36;6.80;99.90
59128;DHT22;44912;52.754;5.994;2023-11-22T11:58:06;6.80;99.90
59128;DHT22;44912;52.754;5.994;2023-11-22T12:00:35;6.80;99.90
59128;DHT22;44912;52.754;5.994;2023-11-22T12:03:02;6.90;99.90
59128;DHT22;44912;52.754;5.994;2023-11-22T12:05:28;7.00;99.90
59128;DHT22;44912;52.754;5.994;2023-11-22T12:07:54;7.00;99.90
59128;DHT22;44912;52.754;5.994;2023-11-22T12:10:20;7.00;99.90
59128;DHT22;44912;52.754;5.994;2023-11-22T12:12:47;7.10;99.90
59128;DHT22;44912;52.754;5.994;2023-11-22T12:15:12;7.10;99.90
59128;DHT22;44912;52.754;5.994;2023-11-22T12:17:40;7.10;99.90
59128;DHT22;44912;52.754;5.994;2023-11-22T12:20:14;7.10;99.90
59128;DHT22;44912;52.754;5.994;2023-11-22T12:22:41;7.10;99.90
59128;DHT22;44912;52.754;5.994;2023-11-22T12:25:07;7.10;99.90
59128;DHT22;44912;52.754;5.994;2023-11-22T12:27:33;7.00;99.90
59128;DHT22;44912;52.754;5.994;2023-11-22T12:29:58;7.00;99.90
59128;DHT22;44912;52.754;5.994;2023-11-22T12:32:25;6.90;99.90
59128;DHT22;44912;52.754;5.994;2023-11-22T12:34:51;7.00;99.90
59128;DHT22;44912;52.754;5.994;2023-11-22T12:37:21;6.90;99.90
59128;DHT22;44912;52.754;5.994;2023-11-22T12:39:50;6.90;99.90
59128;DHT22;44912;52.754;5.994;2023-11-22T12:42:18;6.90;99.90
59128;DHT22;44912;52.754;5.994;2023-11-22T12:44:51;6.80;99.90
59128;DHT22;44912;52.754;5.994;2023-11-22T12:47:36;6.90;99.90
59128;DHT22;44912;52.754;5.994;2023-11-22T12:50:02;6.80;99.90
59128;DHT22;44912;52.754;5.994;2023-11-22T12:52:29;6.70;99.90
59128;DHT22;44912;52.754;5.994;2023-11-22T12:54:58;6.80;99.90
59128;DHT22;44912;52.754;5.994;2023-11-22T12:57:24;6.70;99.90
59128;DHT22;44912;52.754;5.994;2023-11-22T12:59:50;6.70;99.90
59128;DHT22;44912;52.754;5.994;2023-11-22T13:02:16;6.70;99.90
59128;DHT22;44912;52.754;5.994;2023-11-22T13:04:43;6.70;99.90
59128;DHT22;44912;52.754;5.994;2023-11-22T13:07:11;6.70;99.90
59128;DHT22;44912;52.754;5.994;2023-11-22T13:09:36;6.60;99.90
59128;DHT22;44912;52.754;5.994;2023-11-22T13:12:02;6.70;99.90
59128;DHT22;44912;52.754;5.994;2023-11-22T13:14:27;6.70;99.90
59128;DHT22;44912;52.754;5.994;2023-11-22T13:17:00;6.70;99.90
59128;DHT22;44912;52.754;5.994;2023-11-22T13:19:26;6.60;99.90
59128;DHT22;44912;52.754;5.994;2023-11-22T13:21:52;6.70;99.90
59128;DHT22;44912;52.754;5.994;2023-11-22T13:24:17;6.70;99.90
59128;DHT22;44912;52.754;5.994;2023-11-22T13:26:43;6.70;99.90
59128;DHT22;44912;52.754;5.994;2023-11-22T13:29:09;6.70;99.90
59128;DHT22;44912;52.754;5.994;2023-11-22T13:31:35;6.60;99.90
59128;DHT22;44912;52.754;5.994;2023-11-22T13:34:00;6.60;99.90
59128;DHT22;44912;52.754;5.994;2023-11-22T13:36:26;6.60;99.90
59128;DHT22;44912;52.754;5.994;2023-11-22T13:38:53;6.60;99.90
59128;DHT22;44912;52.754;5.994;2023-11-22T13:41:20;6.60;99.90
59128;DHT22;44912;52.754;5.994;2023-11-22T13:43:46;6.60;99.90
59128;DHT22;44912;52.754;5.994;2023-11-22T13:46:14;6.60;99.90
59128;DHT22;44912;52.754;5.994;2023-11-22T13:48:40;6.60;99.90
59128;DHT22;44912;52.754;5.994;2023-11-22T13:51:07;6.60;99.90
59128;DHT22;44912;52.754;5.994;2023-11-22T13:53:33;6.60;99.90
59128;DHT22;44912;52.754;5.994;2023-11-22T13:56:02;6.60;99.90
59128;DHT22;44912;52.754;5.994;2023-11-22T13:58:33;6.50;99.90
59128;DHT22;44912;52.754;5.994;2023-11-22T14:00:59;6.50;99.90
59128;DHT22;44912;52.754;5.994;2023-11-22T14:03:24;6.60;99.90
59128;DHT22;44912;52.754;5.994;2023-11-22T14:05:50;6.50;99.90
59128;DHT22;44912;52.754;5.994;2023-11-22T14:08:15;6.60;99.90
59128;DHT22;44912;52.754;5.994;2023-11-22T14:10:41;6.50;99.90
59128;DHT22;44912;52.754;5.994;2023-11-22T14:13:06;6.50;99.90
59128;DHT22;44912;52.754;5.994;2023-11-22T14:15:34;6.50;99.90
59128;DHT22;44912;52.754;5.994;2023-11-22T14:17:59;6.50;99.90
59128;DHT22;44912;52.754;5.994;2023-11-22T14:20:25;6.40;99.90
59128;DHT22;44912;52.754;5.994;2023-11-22T14:22:51;6.50;99.90
59128;DHT22;44912;52.754;5.994;2023-11-22T14:25:17;6.50;99.90
59128;DHT22;44912;52.754;5.994;2023-11-22T14:27:45;6.40;99.90
59128;DHT22;44912;52.754;5.994;2023-11-22T14:30:12;6.40;99.90
59128;DHT22;44912;52.754;5.994;2023-11-22T14:32:42;6.40;99.90
59128;DHT22;44912;52.754;5.994;2023-11-22T14:35:08;6.40;99.90
59128;DHT22;44912;52.754;5.994;2023-11-22T14:37:34;6.50;99.90
59128;DHT22;44912;52.754;5.994;2023-11-22T14:40:01;6.40;99.90
59128;DHT22;44912;52.754;5.994;2023-11-22T14:42:29;6.40;99.90
59128;DHT22;44912;52.754;5.994;2023-11-22T14:44:55;6.40;99.90
59128;DHT22;44912;52.754;5.994;2023-11-22T14:47:22;6.40;99.90
59128;DHT22;44912;52.754;5.994;2023-11-22T14:49:52;6.40;99.90
59128;DHT22;44912;52.754;5.994;2023-11-22T14:52:18;6.40;99.90
59128;DHT22;44912;52.754;5.994;2023-11-22T14:54:46;6.40;99.90
59128;DHT22;44912;52.754;5.994;2023-11-22T14:57:12;6.40;99.90
59128;DHT22;44912;52.754;5.994;2023-11-22T14:59:41;6.40;99.90
59128;DHT22;44912;52.754;5.994;2023-11-22T15:02:07;6.40;99.90
59128;DHT22;44912;52.754;5.994;2023-11-22T15:04:37;6.40;99.90
59128;DHT22;44912;52.754;5.994;2023-11-22T15:07:04;6.40;99.90
59128;DHT22;44912;52.754;5.994;2023-11-22T15:09:30;6.40;99.90
59128;DHT22;44912;52.754;5.994;2023-11-22T15:11:58;6.40;99.90
59128;DHT22;44912;52.754;5.994;2023-11-22T15:14:24;6.40;99.90
59128;DHT22;44912;52.754;5.994;2023-11-22T15:16:51;6.40;99.90
59128;DHT22;44912;52.754;5.994;2023-11-22T15:19:17;6.40;99.90
59128;DHT22;44912;52.754;5.994;2023-11-22T15:21:43;6.40;99.90
59128;DHT22;44912;52.754;5.994;2023-11-22T15:24:09;6.40;99.90
59128;DHT22;44912;52.754;5.994;2023-11-22T15:26:35;6.40;99.90
59128;DHT22;44912;52.754;5.994;2023-11-22T15:29:00;6.40;99.90
59128;DHT22;44912;52.754;5.994;2023-11-22T15:31:26;6.40;99.90
59128;DHT22;44912;52.754;5.994;2023-11-22T15:33:53;6.40;99.90
59128;DHT22;44912;52.754;5.994;2023-11-22T15:36:18;6.30;99.90
59128;DHT22;44912;52.754;5.994;2023-11-22T15:38:44;6.40;99.90
59128;DHT22;44912;52.754;5.994;2023-11-22T15:41:10;6.30;99.90
59128;DHT22;44912;52.754;5.994;2023-11-22T15:43:36;6.30;99.90
59128;DHT22;44912;52.754;5.994;2023-11-22T15:46:01;6.30;99.90